sensor_id;sensor_type;location;lat;lon;timestamp;pressure;altitude;pressure_sealevel;temperature;humidity
66762;BME280;53672;48.176;16.338;2022-10-01T00:00:08;98903.69;;;12.37;99.59
66762;BME280;53672;48.176;16.338;2022-10-01T00:05:09;98895.31;;;12.38;99.57
66762;BME280;53672;48.176;16.338;2022-10-01T00:10:12;98879.16;;;12.33;99.87
66762;BME280;53672;48.176;16.338;2022-10-01T00:15:14;98886.38;;;12.38;100.00
66762;BME280;53672;48.176;16.338;2022-10-01T00:20:15;98884.97;;;12.40;99.52
66762;BME280;53672;48.176;16.338;2022-10-01T00:25:17;98883.00;;;12.46;99.51
66762;BME280;53672;48.176;16.338;2022-10-01T00:30:17;98895.72;;;12.45;99.83
66762;BME280;53672;48.176;16.338;2022-10-01T00:35:18;98879.78;;;12.44;100.00
66762;BME280;53672;48.176;16.338;2022-10-01T00:40:20;98876.00;;;12.45;100.00
66762;BME280;53672;48.176;16.338;2022-10-01T00:45:21;98876.38;;;12.38;100.00
66762;BME280;53672;48.176;16.338;2022-10-01T00:50:24;98881.41;;;12.45;100.00
66762;BME280;53672;48.176;16.338;2022-10-01T00:55:32;98879.19;;;12.47;100.00
66762;BME280;53672;48.176;16.338;2022-10-01T01:00:33;98891.00;;;12.51;100.00
66762;BME280;53672;48.176;16.338;2022-10-01T01:05:34;98893.13;;;12.54;99.98
66762;BME280;53672;48.176;16.338;2022-10-01T01:10:45;98903.84;;;12.59;99.43
66762;BME280;53672;48.176;16.338;2022-10-01T01:15:53;98889.25;;;12.60;99.15
66762;BME280;53672;48.176;16.338;2022-10-01T01:21:14;98902.16;;;12.63;99.19
66762;BME280;53672;48.176;16.338;2022-10-01T01:26:25;98884.53;;;12.65;98.95
66762;BME280;53672;48.176;16.338;2022-10-01T01:31:31;98883.44;;;12.66;98.89
66762;BME280;53672;48.176;16.338;2022-10-01T01:36:35;98905.25;;;12.70;98.96
66762;BME280;53672;48.176;16.338;2022-10-01T01:41:41;98914.16;;;12.70;98.70
66762;BME280;53672;48.176;16.338;2022-10-01T01:46:45;98911.97;;;12.73;98.33
66762;BME280;53672;48.176;16.338;2022-10-01T01:51:52;98914.34;;;12.74;98.40
66762;BME280;53672;48.176;16.338;2022-10-01T01:56:55;98917.06;;;12.74;98.22
66762;BME280;53672;48.176;16.338;2022-10-01T02:01:58;98907.84;;;12.75;97.94
66762;BME280;53672;48.176;16.338;2022-10-01T02:07:25;98910.28;;;12.77;98.37
66762;BME280;53672;48.176;16.338;2022-10-01T02:12:36;98908.38;;;12.77;98.07
66762;BME280;53672;48.176;16.338;2022-10-01T02:17:48;98908.59;;;12.81;98.76
66762;BME280;53672;48.176;16.338;2022-10-01T02:22:55;98912.38;;;12.80;97.62
66762;BME280;53672;48.176;16.338;2022-10-01T02:28:00;98921.28;;;12.80;97.01
66762;BME280;53672;48.176;16.338;2022-10-01T02:33:06;98914.00;;;12.81;97.94
66762;BME280;53672;48.176;16.338;2022-10-01T02:38:09;98922.69;;;12.78;96.99
66762;BME280;53672;48.176;16.338;2022-10-01T02:43:14;98921.38;;;12.75;96.51
66762;BME280;53672;48.176;16.338;2022-10-01T02:48:17;98915.47;;;12.73;96.22
66762;BME280;53672;48.176;16.338;2022-10-01T02:53:20;98905.47;;;12.74;96.12
66762;BME280;53672;48.176;16.338;2022-10-01T02:58:22;98895.44;;;12.74;96.52
66762;BME280;53672;48.176;16.338;2022-10-01T03:03:24;98890.81;;;12.75;96.56
66762;BME280;53672;48.176;16.338;2022-10-01T03:08:24;98912.78;;;12.73;95.99
66762;BME280;53672;48.176;16.338;2022-10-01T03:13:25;98909.56;;;12.71;95.42
66762;BME280;53672;48.176;16.338;2022-10-01T03:18:27;98905.25;;;12.70;96.09
66762;BME280;53672;48.176;16.338;2022-10-01T03:23:27;98909.88;;;12.69;95.54
66762;BME280;53672;48.176;16.338;2022-10-01T03:28:27;98894.94;;;12.72;96.57
66762;BME280;53672;48.176;16.338;2022-10-01T03:33:29;98903.84;;;12.73;96.39
66762;BME280;53672;48.176;16.338;2022-10-01T03:38:30;98903.06;;;12.72;95.31
66762;BME280;53672;48.176;16.338;2022-10-01T03:43:30;98903.34;;;12.70;95.38
66762;BME280;53672;48.176;16.338;2022-10-01T03:48:32;98902.25;;;12.71;95.76
66762;BME280;53672;48.176;16.338;2022-10-01T03:53:33;98918.47;;;12.71;95.32
66762;BME280;53672;48.176;16.338;2022-10-01T03:58:33;98915.47;;;12.73;95.79
66762;BME280;53672;48.176;16.338;2022-10-01T04:03:35;98921.38;;;12.75;96.35
66762;BME280;53672;48.176;16.338;2022-10-01T04:08:36;98911.16;;;12.72;94.65
66762;BME280;53672;48.176;16.338;2022-10-01T04:13:36;98919.56;;;12.70;94.53
66762;BME280;53672;48.176;16.338;2022-10-01T04:18:38;98923.88;;;12.71;94.30
66762;BME280;53672;48.176;16.338;2022-10-01T04:23:38;98923.06;;;12.71;93.76
66762;BME280;53672;48.176;16.338;2022-10-01T04:28:39;98929.28;;;12.71;93.79
66762;BME280;53672;48.176;16.338;2022-10-01T04:33:41;98928.19;;;12.73;94.45
66762;BME280;53672;48.176;16.338;2022-10-01T04:38:41;98920.38;;;12.71;93.69
66762;BME280;53672;48.176;16.338;2022-10-01T04:43:42;98917.38;;;12.73;94.30
66762;BME280;53672;48.176;16.338;2022-10-01T04:48:44;98917.66;;;12.71;95.73
66762;BME280;53672;48.176;16.338;2022-10-01T04:53:46;98918.78;;;12.70;95.97
66762;BME280;53672;48.176;16.338;2022-10-01T04:58:47;98918.25;;;12.68;96.14
66762;BME280;53672;48.176;16.338;2022-10-01T05:03:49;98921.06;;;12.63;96.65
66762;BME280;53672;48.176;16.338;2022-10-01T05:08:50;98927.56;;;12.62;97.58
66762;BME280;53672;48.176;16.338;2022-10-01T05:13:50;98940.88;;;12.58;96.84
66762;BME280;53672;48.176;16.338;2022-10-01T05:18:52;98946.91;;;12.55;96.94
66762;BME280;53672;48.176;16.338;2022-10-01T05:23:52;98953.09;;;12.56;97.05
66762;BME280;53672;48.176;16.338;2022-10-01T05:28:53;98941.97;;;12.57;97.75
66762;BME280;53672;48.176;16.338;2022-10-01T05:33:55;98952.31;;;12.55;96.09
66762;BME280;53672;48.176;16.338;2022-10-01T05:38:55;98957.72;;;12.55;95.69
66762;BME280;53672;48.176;16.338;2022-10-01T05:43:56;98967.44;;;12.56;95.23
66762;BME280;53672;48.176;16.338;2022-10-01T05:48:58;98973.34;;;12.58;95.68
66762;BME280;53672;48.176;16.338;2022-10-01T05:53:59;98953.00;;;12.61;95.90
66762;BME280;53672;48.176;16.338;2022-10-01T05:58:59;98962.66;;;12.67;97.43
66762;BME280;53672;48.176;16.338;2022-10-01T06:04:01;98962.34;;;12.68;97.36
66762;BME280;53672;48.176;16.338;2022-10-01T06:09:02;98950.63;;;12.73;98.04
66762;BME280;53672;48.176;16.338;2022-10-01T06:14:02;98950.25;;;12.80;98.10
66762;BME280;53672;48.176;16.338;2022-10-01T06:19:04;98949.34;;;12.84;96.53
66762;BME280;53672;48.176;16.338;2022-10-01T06:24:04;98951.47;;;12.87;94.42
66762;BME280;53672;48.176;16.338;2022-10-01T06:29:05;98946.53;;;12.89;94.73
66762;BME280;53672;48.176;16.338;2022-10-01T06:34:07;98944.53;;;12.95;94.91
66762;BME280;53672;48.176;16.338;2022-10-01T06:39:07;98940.94;;;12.99;94.66
66762;BME280;53672;48.176;16.338;2022-10-01T06:44:08;98942.53;;;13.00;93.65
66762;BME280;53672;48.176;16.338;2022-10-01T06:49:10;98945.84;;;12.97;92.41
66762;BME280;53672;48.176;16.338;2022-10-01T06:54:10;98930.03;;;13.04;92.37
66762;BME280;53672;48.176;16.338;2022-10-01T06:59:11;98916.91;;;13.11;92.11
66762;BME280;53672;48.176;16.338;2022-10-01T07:04:13;98910.69;;;13.25;92.71
66762;BME280;53672;48.176;16.338;2022-10-01T07:09:13;98907.63;;;13.40;92.69
66762;BME280;53672;48.176;16.338;2022-10-01T07:14:14;98916.25;;;13.55;90.79
66762;BME280;53672;48.176;16.338;2022-10-01T07:19:16;98917.59;;;13.66;90.59
66762;BME280;53672;48.176;16.338;2022-10-01T07:24:16;98926.00;;;13.79;90.65
66762;BME280;53672;48.176;16.338;2022-10-01T07:29:16;98917.94;;;13.87;90.74
66762;BME280;53672;48.176;16.338;2022-10-01T07:34:18;98911.69;;;14.00;90.48
66762;BME280;53672;48.176;16.338;2022-10-01T07:39:19;98902.78;;;14.08;88.75
66762;BME280;53672;48.176;16.338;2022-10-01T07:44:19;98894.03;;;14.11;88.05
66762;BME280;53672;48.176;16.338;2022-10-01T07:49:21;98893.31;;;14.19;87.79
66762;BME280;53672;48.176;16.338;2022-10-01T07:54:22;98897.59;;;14.34;86.96
66762;BME280;53672;48.176;16.338;2022-10-01T07:59:23;98902.78;;;14.53;87.16
66762;BME280;53672;48.176;16.338;2022-10-01T08:04:24;98907.47;;;14.69;84.57
66762;BME280;53672;48.176;16.338;2022-10-01T08:09:25;98904.34;;;14.85;83.22
66762;BME280;53672;48.176;16.338;2022-10-01T08:14:25;98912.22;;;14.95;82.60
66762;BME280;53672;48.176;16.338;2022-10-01T08:19:27;98910.31;;;15.04;81.05
66762;BME280;53672;48.176;16.338;2022-10-01T08:24:28;98920.41;;;15.03;80.25
66762;BME280;53672;48.176;16.338;2022-10-01T08:29:28;98920.88;;;15.05;79.52
66762;BME280;53672;48.176;16.338;2022-10-01T08:34:30;98919.25;;;15.04;79.09
66762;BME280;53672;48.176;16.338;2022-10-01T08:39:30;98918.00;;;15.02;78.39
66762;BME280;53672;48.176;16.338;2022-10-01T08:44:35;98929.50;;;15.07;79.56
66762;BME280;53672;48.176;16.338;2022-10-01T08:49:42;98915.16;;;15.15;79.47
66762;BME280;53672;48.176;16.338;2022-10-01T08:54:46;98915.00;;;15.20;78.91
66762;BME280;53672;48.176;16.338;2022-10-01T08:59:51;98909.44;;;15.26;78.41
66762;BME280;53672;48.176;16.338;2022-10-01T09:04:56;98903.22;;;15.34;78.66
66762;BME280;53672;48.176;16.338;2022-10-01T09:10:04;98908.19;;;15.40;77.25
66762;BME280;53672;48.176;16.338;2022-10-01T09:15:16;98917.47;;;15.48;77.20
66762;BME280;53672;48.176;16.338;2022-10-01T09:20:24;98912.25;;;15.51;76.11
66762;BME280;53672;48.176;16.338;2022-10-01T09:25:26;98904.72;;;15.57;76.28
66762;BME280;53672;48.176;16.338;2022-10-01T09:30:27;98904.25;;;15.63;77.13
66762;BME280;53672;48.176;16.338;2022-10-01T09:35:40;98888.56;;;15.69;74.81
66762;BME280;53672;48.176;16.338;2022-10-01T09:40:48;98883.97;;;15.61;73.48
66762;BME280;53672;48.176;16.338;2022-10-01T09:45:50;98885.06;;;15.68;75.58
66762;BME280;53672;48.176;16.338;2022-10-01T09:50:56;98883.63;;;15.71;74.92
66762;BME280;53672;48.176;16.338;2022-10-01T09:56:00;98876.59;;;15.79;76.23
66762;BME280;53672;48.176;16.338;2022-10-01T10:01:03;98886.50;;;15.83;74.36
66762;BME280;53672;48.176;16.338;2022-10-01T10:06:11;98884.44;;;15.89;72.29
66762;BME280;53672;48.176;16.338;2022-10-01T10:11:19;98886.16;;;15.93;72.31
66762;BME280;53672;48.176;16.338;2022-10-01T10:16:24;98886.03;;;15.98;71.72
66762;BME280;53672;48.176;16.338;2022-10-01T10:21:28;98867.13;;;16.10;73.79
66762;BME280;53672;48.176;16.338;2022-10-01T10:26:31;98860.53;;;16.29;71.90
66762;BME280;53672;48.176;16.338;2022-10-01T10:31:39;98857.06;;;16.66;72.35
66762;BME280;53672;48.176;16.338;2022-10-01T10:36:43;98858.81;;;17.00;70.72
66762;BME280;53672;48.176;16.338;2022-10-01T10:41:46;98847.94;;;17.00;73.97
66762;BME280;53672;48.176;16.338;2022-10-01T10:46:49;98837.78;;;17.59;73.12
66762;BME280;53672;48.176;16.338;2022-10-01T10:51:53;98828.19;;;17.53;72.56
66762;BME280;53672;48.176;16.338;2022-10-01T10:56:57;98826.16;;;17.00;72.85
66762;BME280;53672;48.176;16.338;2022-10-01T11:01:59;98818.88;;;16.83;72.49
66762;BME280;53672;48.176;16.338;2022-10-01T11:07:01;98814.84;;;16.89;74.43
66762;BME280;53672;48.176;16.338;2022-10-01T11:12:09;98799.00;;;16.53;75.79
66762;BME280;53672;48.176;16.338;2022-10-01T11:17:24;98797.31;;;16.32;75.12
66762;BME280;53672;48.176;16.338;2022-10-01T11:22:41;98789.22;;;16.52;76.53
66762;BME280;53672;48.176;16.338;2022-10-01T11:27:50;98782.09;;;16.77;74.98
66762;BME280;53672;48.176;16.338;2022-10-01T11:33:03;98780.56;;;16.67;75.83
66762;BME280;53672;48.176;16.338;2022-10-01T11:38:21;98765.88;;;16.51;75.87
66762;BME280;53672;48.176;16.338;2022-10-01T11:43:33;98764.63;;;16.99;73.98
66762;BME280;53672;48.176;16.338;2022-10-01T11:48:39;98757.31;;;16.70;74.06
66762;BME280;53672;48.176;16.338;2022-10-01T11:53:45;98753.28;;;16.76;74.28
66762;BME280;53672;48.176;16.338;2022-10-01T11:58:51;98752.00;;;16.73;74.50
66762;BME280;53672;48.176;16.338;2022-10-01T12:04:03;98751.00;;;16.57;74.63
66762;BME280;53672;48.176;16.338;2022-10-01T12:09:13;98752.56;;;16.58;75.58
66762;BME280;53672;48.176;16.338;2022-10-01T12:14:19;98738.16;;;16.58;74.96
66762;BME280;53672;48.176;16.338;2022-10-01T12:19:23;98740.28;;;17.02;72.89
66762;BME280;53672;48.176;16.338;2022-10-01T12:24:29;98730.53;;;17.01;73.29
66762;BME280;53672;48.176;16.338;2022-10-01T12:29:38;98727.31;;;16.99;73.59
66762;BME280;53672;48.176;16.338;2022-10-01T12:34:49;98716.78;;;17.18;74.83
66762;BME280;53672;48.176;16.338;2022-10-01T12:40:04;98717.84;;;17.05;74.42
66762;BME280;53672;48.176;16.338;2022-10-01T12:45:16;98712.72;;;17.04;73.67
66762;BME280;53672;48.176;16.338;2022-10-01T12:50:26;98703.44;;;17.05;74.37
66762;BME280;53672;48.176;16.338;2022-10-01T12:55:46;98698.78;;;17.05;75.50
66762;BME280;53672;48.176;16.338;2022-10-01T13:00:52;98686.53;;;17.32;75.07
66762;BME280;53672;48.176;16.338;2022-10-01T13:06:07;98689.88;;;17.50;63.46
66762;BME280;53672;48.176;16.338;2022-10-01T13:11:23;98686.34;;;17.82;60.14
66762;BME280;53672;48.176;16.338;2022-10-01T13:16:34;98675.47;;;17.94;57.29
66762;BME280;53672;48.176;16.338;2022-10-01T13:21:49;98689.53;;;17.96;56.58
66762;BME280;53672;48.176;16.338;2022-10-01T13:26:57;98678.28;;;17.86;54.48
66762;BME280;53672;48.176;16.338;2022-10-01T13:32:03;98677.81;;;17.84;55.54
66762;BME280;53672;48.176;16.338;2022-10-01T13:37:34;98683.41;;;17.87;55.44
66762;BME280;53672;48.176;16.338;2022-10-01T13:42:40;98693.81;;;17.73;53.91
66762;BME280;53672;48.176;16.338;2022-10-01T13:47:43;98692.34;;;17.63;53.63
66762;BME280;53672;48.176;16.338;2022-10-01T13:52:43;98698.78;;;17.59;54.62
66762;BME280;53672;48.176;16.338;2022-10-01T13:57:45;98692.25;;;17.51;53.90
66762;BME280;53672;48.176;16.338;2022-10-01T14:02:58;98713.34;;;17.42;53.95
66762;BME280;53672;48.176;16.338;2022-10-01T14:08:04;98715.81;;;17.35;53.97
66762;BME280;53672;48.176;16.338;2022-10-01T14:13:10;98716.22;;;17.25;53.71
66762;BME280;53672;48.176;16.338;2022-10-01T14:18:14;98719.56;;;17.10;54.39
66762;BME280;53672;48.176;16.338;2022-10-01T14:23:20;98715.50;;;16.95;54.60
66762;BME280;53672;48.176;16.338;2022-10-01T14:28:36;98701.97;;;16.87;55.79
66762;BME280;53672;48.176;16.338;2022-10-01T14:33:52;98693.41;;;16.76;55.58
66762;BME280;53672;48.176;16.338;2022-10-01T14:39:13;98679.25;;;16.62;56.25
66762;BME280;53672;48.176;16.338;2022-10-01T14:44:22;98690.16;;;16.53;56.71
66762;BME280;53672;48.176;16.338;2022-10-01T14:49:25;98686.53;;;16.41;56.56
66762;BME280;53672;48.176;16.338;2022-10-01T14:54:27;98683.53;;;16.34;56.21
66762;BME280;53672;48.176;16.338;2022-10-01T14:59:34;98688.72;;;16.27;57.04
66762;BME280;53672;48.176;16.338;2022-10-01T15:04:35;98676.78;;;16.19;57.59
66762;BME280;53672;48.176;16.338;2022-10-01T15:09:36;98688.66;;;16.06;60.82
66762;BME280;53672;48.176;16.338;2022-10-01T15:14:38;98688.88;;;15.92;62.33
66762;BME280;53672;48.176;16.338;2022-10-01T15:19:43;98695.78;;;15.81;62.68
66762;BME280;53672;48.176;16.338;2022-10-01T15:24:46;98688.00;;;15.71;62.99
66762;BME280;53672;48.176;16.338;2022-10-01T15:29:52;98687.69;;;15.64;62.84
66762;BME280;53672;48.176;16.338;2022-10-01T15:34:55;98676.53;;;15.57;62.62
66762;BME280;53672;48.176;16.338;2022-10-01T15:39:58;98676.38;;;15.53;61.94
66762;BME280;53672;48.176;16.338;2022-10-01T15:45:27;98692.53;;;15.50;62.15
66762;BME280;53672;48.176;16.338;2022-10-01T15:50:28;98678.28;;;15.44;62.34
66762;BME280;53672;48.176;16.338;2022-10-01T15:55:40;98676.84;;;15.38;63.06
66762;BME280;53672;48.176;16.338;2022-10-01T16:00:54;98685.50;;;15.32;63.39
66762;BME280;53672;48.176;16.338;2022-10-01T16:05:57;98693.81;;;15.27;63.89
66762;BME280;53672;48.176;16.338;2022-10-01T16:11:14;98700.50;;;15.20;64.68
66762;BME280;53672;48.176;16.338;2022-10-01T16:16:27;98701.78;;;15.14;65.42
66762;BME280;53672;48.176;16.338;2022-10-01T16:21:28;98689.97;;;15.10;66.04
66762;BME280;53672;48.176;16.338;2022-10-01T16:26:37;98678.03;;;15.03;66.95
66762;BME280;53672;48.176;16.338;2022-10-01T16:31:42;98698.13;;;15.02;67.31
66762;BME280;53672;48.176;16.338;2022-10-01T16:36:43;98711.09;;;14.96;68.33
66762;BME280;53672;48.176;16.338;2022-10-01T16:41:45;98726.53;;;14.87;69.10
66762;BME280;53672;48.176;16.338;2022-10-01T16:46:48;98719.22;;;14.79;69.71
66762;BME280;53672;48.176;16.338;2022-10-01T16:51:50;98728.94;;;14.71;70.38
66762;BME280;53672;48.176;16.338;2022-10-01T16:56:52;98724.94;;;14.69;71.50
66762;BME280;53672;48.176;16.338;2022-10-01T17:01:54;98719.81;;;14.67;70.10
66762;BME280;53672;48.176;16.338;2022-10-01T17:06:54;98717.75;;;14.64;70.25
66762;BME280;53672;48.176;16.338;2022-10-01T17:11:55;98719.66;;;14.64;69.20
66762;BME280;53672;48.176;16.338;2022-10-01T17:16:57;98731.78;;;14.58;69.58
66762;BME280;53672;48.176;16.338;2022-10-01T17:21:58;98727.63;;;14.52;69.62
66762;BME280;53672;48.176;16.338;2022-10-01T17:26:58;98725.84;;;14.47;69.68
66762;BME280;53672;48.176;16.338;2022-10-01T17:32:00;98726.44;;;14.36;70.32
66762;BME280;53672;48.176;16.338;2022-10-01T17:37:01;98743.03;;;14.34;70.02
66762;BME280;53672;48.176;16.338;2022-10-01T17:42:01;98746.47;;;14.26;70.44
66762;BME280;53672;48.176;16.338;2022-10-01T17:47:04;98740.41;;;14.20;70.45
66762;BME280;53672;48.176;16.338;2022-10-01T17:52:04;98741.97;;;14.13;70.46
66762;BME280;53672;48.176;16.338;2022-10-01T17:57:05;98751.31;;;13.98;71.53
66762;BME280;53672;48.176;16.338;2022-10-01T18:02:09;98755.53;;;13.82;72.82
66762;BME280;53672;48.176;16.338;2022-10-01T18:07:10;98762.66;;;13.78;73.66
66762;BME280;53672;48.176;16.338;2022-10-01T18:12:11;98771.53;;;13.70;74.41
66762;BME280;53672;48.176;16.338;2022-10-01T18:17:13;98759.38;;;13.59;75.38
66762;BME280;53672;48.176;16.338;2022-10-01T18:22:13;98772.03;;;13.50;76.46
66762;BME280;53672;48.176;16.338;2022-10-01T18:27:14;98773.91;;;13.41;77.37
66762;BME280;53672;48.176;16.338;2022-10-01T18:32:18;98771.09;;;13.32;78.51
66762;BME280;53672;48.176;16.338;2022-10-01T18:37:31;98776.16;;;13.25;78.97
66762;BME280;53672;48.176;16.338;2022-10-01T18:42:42;98780.59;;;13.21;79.74
66762;BME280;53672;48.176;16.338;2022-10-01T18:47:56;98793.50;;;13.24;79.68
66762;BME280;53672;48.176;16.338;2022-10-01T18:53:11;98803.53;;;13.24;79.80
66762;BME280;53672;48.176;16.338;2022-10-01T18:58:27;98818.66;;;13.25;80.11
66762;BME280;53672;48.176;16.338;2022-10-01T19:03:50;98827.88;;;13.24;80.49
66762;BME280;53672;48.176;16.338;2022-10-01T19:09:16;98832.06;;;13.30;80.86
66762;BME280;53672;48.176;16.338;2022-10-01T19:14:45;98833.75;;;13.39;80.26
66762;BME280;53672;48.176;16.338;2022-10-01T19:20:01;98838.88;;;13.41;80.73
66762;BME280;53672;48.176;16.338;2022-10-01T19:25:13;98836.63;;;13.43;80.96
66762;BME280;53672;48.176;16.338;2022-10-01T19:30:17;98851.31;;;13.42;81.07
66762;BME280;53672;48.176;16.338;2022-10-01T19:35:21;98838.44;;;13.47;80.47
66762;BME280;53672;48.176;16.338;2022-10-01T19:40:27;98863.72;;;13.43;80.56
66762;BME280;53672;48.176;16.338;2022-10-01T19:45:38;98852.59;;;13.44;80.57
66762;BME280;53672;48.176;16.338;2022-10-01T19:50:46;98851.91;;;13.39;80.70
66762;BME280;53672;48.176;16.338;2022-10-01T19:55:51;98872.44;;;13.40;80.45
66762;BME280;53672;48.176;16.338;2022-10-01T20:00:54;98863.72;;;13.43;80.42
66762;BME280;53672;48.176;16.338;2022-10-01T20:06:01;98865.31;;;13.44;80.21
66762;BME280;53672;48.176;16.338;2022-10-01T20:11:10;98873.53;;;13.52;79.67
66762;BME280;53672;48.176;16.338;2022-10-01T20:16:17;98884.94;;;13.63;79.03
66762;BME280;53672;48.176;16.338;2022-10-01T20:21:33;98870.66;;;13.71;78.55
66762;BME280;53672;48.176;16.338;2022-10-01T20:26:39;98869.03;;;13.70;78.24
66762;BME280;53672;48.176;16.338;2022-10-01T20:31:50;98859.81;;;13.71;77.85
66762;BME280;53672;48.176;16.338;2022-10-01T20:37:00;98853.28;;;13.72;77.79
66762;BME280;53672;48.176;16.338;2022-10-01T20:42:04;98849.41;;;13.64;78.58
66762;BME280;53672;48.176;16.338;2022-10-01T20:47:09;98847.97;;;13.67;78.15
66762;BME280;53672;48.176;16.338;2022-10-01T20:52:17;98878.16;;;13.74;77.82
66762;BME280;53672;48.176;16.338;2022-10-01T20:57:26;98890.44;;;13.94;76.62
66762;BME280;53672;48.176;16.338;2022-10-01T21:02:36;98876.94;;;14.02;76.05
66762;BME280;53672;48.176;16.338;2022-10-01T21:07:46;98882.91;;;14.13;75.40
66762;BME280;53672;48.176;16.338;2022-10-01T21:12:56;98904.59;;;14.13;75.69
66762;BME280;53672;48.176;16.338;2022-10-01T21:18:01;98896.13;;;14.14;75.79
66762;BME280;53672;48.176;16.338;2022-10-01T21:23:12;98916.72;;;14.15;75.47
66762;BME280;53672;48.176;16.338;2022-10-01T21:28:31;98923.13;;;14.19;76.56
66762;BME280;53672;48.176;16.338;2022-10-01T21:33:43;98928.97;;;14.13;77.66
66762;BME280;53672;48.176;16.338;2022-10-01T21:38:50;98916.47;;;14.03;78.60
66762;BME280;53672;48.176;16.338;2022-10-01T21:44:21;98928.53;;;13.97;78.77
66762;BME280;53672;48.176;16.338;2022-10-01T21:49:31;98910.59;;;13.88;79.21
66762;BME280;53672;48.176;16.338;2022-10-01T21:54:58;98928.38;;;13.80;79.16
66762;BME280;53672;48.176;16.338;2022-10-01T22:00:11;98930.63;;;13.78;79.45
66762;BME280;53672;48.176;16.338;2022-10-01T22:05:17;98937.13;;;13.77;79.50
66762;BME280;53672;48.176;16.338;2022-10-01T22:10:25;98923.19;;;13.70;79.81
66762;BME280;53672;48.176;16.338;2022-10-01T22:15:30;98933.47;;;13.73;79.39
66762;BME280;53672;48.176;16.338;2022-10-01T22:20:32;98937.44;;;13.76;79.26
66762;BME280;53672;48.176;16.338;2022-10-01T22:25:41;98940.22;;;13.84;78.33
66762;BME280;53672;48.176;16.338;2022-10-01T22:30:44;98949.34;;;13.88;77.93
66762;BME280;53672;48.176;16.338;2022-10-01T22:35:49;98934.09;;;13.92;77.67
66762;BME280;53672;48.176;16.338;2022-10-01T22:40:56;98950.22;;;13.97;77.25
66762;BME280;53672;48.176;16.338;2022-10-01T22:46:13;98945.28;;;13.99;77.25
66762;BME280;53672;48.176;16.338;2022-10-01T22:51:28;98938.28;;;13.98;77.45
66762;BME280;53672;48.176;16.338;2022-10-01T22:56:39;98961.22;;;14.01;77.52
66762;BME280;53672;48.176;16.338;2022-10-01T23:01:47;98964.75;;;14.01;77.40
66762;BME280;53672;48.176;16.338;2022-10-01T23:06:58;98952.19;;;14.05;77.32
66762;BME280;53672;48.176;16.338;2022-10-01T23:12:09;98964.03;;;14.09;78.19
66762;BME280;53672;48.176;16.338;2022-10-01T23:17:17;98952.31;;;14.00;80.55
66762;BME280;53672;48.176;16.338;2022-10-01T23:22:32;98968.72;;;13.82;83.72
66762;BME280;53672;48.176;16.338;2022-10-01T23:27:44;98974.59;;;13.61;85.51
66762;BME280;53672;48.176;16.338;2022-10-01T23:33:01;98958.19;;;13.44;86.53
66762;BME280;53672;48.176;16.338;2022-10-01T23:38:17;98969.22;;;13.34;87.92
66762;BME280;53672;48.176;16.338;2022-10-01T23:43:25;98961.19;;;13.29;88.30
66762;BME280;53672;48.176;16.338;2022-10-01T23:48:33;98965.03;;;13.28;87.71
66762;BME280;53672;48.176;16.338;2022-10-01T23:53:41;98970.72;;;13.27;87.25
66762;BME280;53672;48.176;16.338;2022-10-01T23:58:49;98973.13;;;13.28;86.17
